Time;durP1;ratioP1;P1;durP2;ratioP2;P2;SDS_P1;SDS_P2;PMS_P1;PMS_P2;Temp;Humidity;BMP_temperature;BMP_pressure;BME280_temperature;BME280_humidity;BME280_pressure;Samples;Min_cycle;Max_cycle;Signal;HPM_P1;HPM_P2
2022/04/01 00:04:03;;;;;;;8.80;3.20;;;23.40;58.40;;;;;;215759;1296;24470;-40
2022/04/01 00:09:09;;;;;;;6.70;3.50;;;23.40;57.90;;;;;;215977;1293;24546;-39
2022/04/01 00:14:13;;;;;;;7.00;3.30;;;23.50;57.80;;;;;;216005;1293;22753;-39
2022/04/01 00:19:16;;;;;;;5.50;3.00;;;23.60;57.40;;;;;;215626;1293;25557;-43
2022/04/01 00:24:21;;;;;;;7.40;3.30;;;23.60;57.10;;;;;;216135;1294;22575;-39
2022/04/01 00:29:26;;;;;;;5.80;2.80;;;23.60;57.20;;;;;;216095;1293;25330;-39
2022/04/01 00:34:32;;;;;;;4.50;2.90;;;23.50;57.40;;;;;;215994;1293;22616;-40
2022/04/01 00:39:35;;;;;;;4.10;2.80;;;23.40;57.10;;;;;;215890;1293;25500;-39
2022/04/01 00:44:44;;;;;;;6.60;3.30;;;23.30;57.10;;;;;;216061;1293;22607;-41
2022/04/01 00:49:55;;;;;;;4.50;2.90;;;23.30;57.20;;;;;;216090;1293;24252;-39
2022/04/01 00:55:01;;;;;;;5.90;3.10;;;23.20;57.30;;;;;;216126;1293;24448;-44
2022/04/01 01:00:08;;;;;;;7.30;3.80;;;23.20;57.20;;;;;;216036;1293;24360;-41
2022/04/01 01:05:44;;;;;;;5.30;3.00;;;23.20;57.10;;;;;;215974;1292;22566;-39
2022/04/01 01:11:03;;;;;;;5.80;3.30;;;23.10;57.00;;;;;;216013;1293;25302;-38
2022/04/01 01:16:09;;;;;;;5.20;3.10;;;23.20;57.00;;;;;;215536;1296;22675;-41
2022/04/01 01:21:14;;;;;;;5.40;2.60;;;23.30;56.40;;;;;;216239;1293;22658;-40
2022/04/01 01:26:18;;;;;;;6.40;2.80;;;23.30;56.10;;;;;;216048;1293;26179;-37
2022/04/01 01:31:25;;;;;;;6.00;2.60;;;23.40;56.10;;;;;;215883;1293;22854;-38
2022/04/01 01:36:30;;;;;;;5.50;3.10;;;23.50;55.60;;;;;;216146;1294;22572;-40
2022/04/01 01:41:34;;;;;;;5.10;2.70;;;23.50;55.30;;;;;;215499;1296;22804;-39
2022/04/01 01:46:41;;;;;;;5.80;3.10;;;23.60;55.40;;;;;;215567;1293;25396;-39
2022/04/01 01:57:09;;;;;;;5.70;2.80;;;23.70;54.60;;;;;;216112;1293;26547;-39
2022/04/01 02:02:14;;;;;;;5.40;2.80;;;23.70;54.70;;;;;;215608;1293;24328;-40
2022/04/01 02:07:18;;;;;;;5.90;3.00;;;23.70;54.40;;;;;;216124;1293;25497;-43
2022/04/01 02:12:21;;;;;;;5.80;2.60;;;23.60;54.30;;;;;;216148;1293;22585;-39
2022/04/01 02:17:25;;;;;;;4.80;2.40;;;23.50;54.40;;;;;;215850;1293;22788;-41
2022/04/01 02:22:29;;;;;;;3.80;2.50;;;23.50;54.40;;;;;;216163;1293;22608;-40
2022/04/01 02:27:34;;;;;;;5.20;2.30;;;23.50;54.40;;;;;;215997;1293;22877;-39
2022/04/01 02:32:39;;;;;;;6.00;3.00;;;23.30;54.80;;;;;;215948;1293;24262;-40
2022/04/01 02:37:52;;;;;;;4.80;2.70;;;23.30;54.30;;;;;;215980;1293;22921;-38
2022/04/01 02:42:58;;;;;;;4.30;2.60;;;23.30;54.30;;;;;;216105;1293;25433;-37
2022/04/01 02:48:05;;;;;;;4.30;2.70;;;23.30;54.60;;;;;;215917;1293;23087;-38
2022/04/01 02:53:21;;;;;;;4.50;2.50;;;23.30;54.10;;;;;;215878;1293;22661;-39
2022/04/01 02:58:25;;;;;;;4.40;2.30;;;23.30;53.90;;;;;;215865;1293;22609;-40
2022/04/01 03:03:29;;;;;;;5.00;2.80;;;23.40;54.10;;;;;;215741;1293;26509;-38
2022/04/01 03:08:34;;;;;;;3.70;2.20;;;23.50;53.70;;;;;;216126;1293;25287;-38
2022/04/01 03:13:41;;;;;;;4.90;2.50;;;23.50;53.40;;;;;;216075;1294;24463;-40
2022/04/01 03:19:23;;;;;;;8.30;2.50;;;23.60;53.00;;;;;;216040;1293;22611;-39
2022/04/01 03:24:28;;;;;;;4.50;2.40;;;23.70;52.80;;;;;;215920;1293;22770;-38
2022/04/01 03:29:32;;;;;;;5.50;2.60;;;23.70;52.50;;;;;;215992;1293;25623;-40
2022/04/01 03:34:38;;;;;;;4.70;2.50;;;23.80;52.40;;;;;;215629;1294;22588;-39
2022/04/01 03:39:43;;;;;;;4.70;2.60;;;23.80;52.20;;;;;;216138;1294;22636;-37
2022/04/01 03:44:48;;;;;;;4.50;2.50;;;23.70;52.20;;;;;;215968;1294;22585;-41
2022/04/01 03:50:18;;;;;;;3.70;2.20;;;23.70;52.40;;;;;;215920;1293;24251;-39
2022/04/01 03:55:24;;;;;;;4.50;2.10;;;23.60;52.40;;;;;;215799;1294;25566;-39
2022/04/01 04:00:54;;;;;;;4.50;2.60;;;23.50;52.50;;;;;;215785;1294;25473;-39
2022/04/01 04:06:04;;;;;;;3.40;2.10;;;23.50;52.80;;;;;;216146;1294;22624;-38
2022/04/01 04:11:09;;;;;;;4.00;2.40;;;23.40;52.50;;;;;;215891;1293;22681;-38
2022/04/01 04:16:34;;;;;;;4.90;2.50;;;23.40;52.50;;;;;;215851;1293;23935;-39
2022/04/01 04:22:14;;;;;;;4.30;2.50;;;23.30;52.80;;;;;;215490;1293;22579;-41
2022/04/01 04:27:29;;;;;;;4.20;2.20;;;23.30;52.30;;;;;;215335;1293;25619;-40
2022/04/01 04:32:43;;;;;;;5.90;2.60;;;23.50;52.20;;;;;;216111;1294;22588;-39
2022/04/01 04:37:47;;;;;;;4.80;2.40;;;23.50;52.00;;;;;;215288;1296;22769;-39
2022/04/01 04:42:53;;;;;;;3.40;2.20;;;23.60;51.80;;;;;;215619;1293;24269;-38
2022/04/01 04:47:58;;;;;;;3.60;2.20;;;23.60;51.60;;;;;;215931;1294;261816;-41
2022/04/01 04:53:02;;;;;;;7.00;2.60;;;23.60;51.50;;;;;;215890;1293;24455;-39
2022/04/01 04:58:09;;;;;;;4.20;2.20;;;23.70;51.30;;;;;;216150;1294;26551;-39
2022/04/01 05:03:29;;;;;;;3.20;2.10;;;23.70;50.70;;;;;;215888;1293;22641;-40
2022/04/01 05:08:57;;;;;;;4.20;2.10;;;23.80;51.10;;;;;;215921;1293;22608;-38
2022/04/01 05:15:08;;;;;;;3.50;2.20;;;23.80;50.80;;;;;;215627;1293;23691;-41
2022/04/01 05:20:18;;;;;;;3.70;2.10;;;23.70;50.80;;;;;;215750;1296;25607;-39
2022/04/01 05:25:32;;;;;;;4.20;2.30;;;23.60;50.80;;;;;;215847;1293;25384;-39
2022/04/01 05:30:40;;;;;;;4.40;2.20;;;23.50;51.30;;;;;;215928;1293;22567;-40
2022/04/01 05:35:51;;;;;;;4.50;2.30;;;23.50;51.10;;;;;;215644;1294;24419;-40
2022/04/01 05:40:58;;;;;;;5.40;2.50;;;23.60;51.50;;;;;;215475;1294;23029;-39
2022/04/01 05:46:03;;;;;;;4.00;2.60;;;23.60;51.60;;;;;;215321;1294;24262;-40
2022/04/01 05:51:07;;;;;;;4.40;2.40;;;23.60;51.50;;;;;;215540;1294;22599;-39
2022/04/01 05:56:23;;;;;;;5.80;2.10;;;23.50;51.70;;;;;;215321;1293;24425;-39
2022/04/01 06:01:42;;;;;;;5.30;2.60;;;23.60;51.50;;;;;;215590;1294;22599;-39
2022/04/01 06:06:49;;;;;;;9.90;2.30;;;23.70;51.40;;;;;;215106;1296;24212;-38
2022/04/01 06:12:29;;;;;;;5.80;1.90;;;23.80;51.10;;;;;;215723;1294;25292;-41
2022/04/01 06:17:58;;;;;;;4.70;2.20;;;24.00;51.20;;;;;;215093;1293;22825;-39
2022/04/01 06:23:14;;;;;;;10.80;2.60;;;24.00;51.30;;;;;;215664;1293;25494;-38
2022/04/01 06:28:39;;;;;;;15.60;2.60;;;23.90;51.10;;;;;;216429;1294;22599;-39
2022/04/01 06:34:27;;;;;;;17.10;2.70;;;23.90;51.40;;;;;;215784;1293;22572;-38
2022/04/01 06:40:02;;;;;;;9.20;2.50;;;23.70;51.60;;;;;;215211;1294;24472;-39
2022/04/01 06:45:15;;;;;;;12.10;2.60;;;23.60;51.50;;;;;;215679;1294;22585;-42
2022/04/01 06:50:38;;;;;;;5.40;2.50;;;23.50;51.50;;;;;;216090;1293;24316;-40
2022/04/01 06:56:00;;;;;;;11.40;2.70;;;23.30;51.60;;;;;;215796;1294;22608;-39
2022/04/01 07:01:05;;;;;;;5.90;2.30;;;23.30;51.90;;;;;;215452;1294;22645;-39
2022/04/01 07:06:09;;;;;;;5.60;2.70;;;23.20;52.30;;;;;;215686;1293;24369;-40
2022/04/01 07:11:20;;;;;;;5.70;2.50;;;22.90;52.80;;;;;;215649;1293;22622;-42
2022/04/01 07:16:24;;;;;;;7.20;2.30;;;22.90;52.80;;;;;;215858;1294;22588;-41
2022/04/01 07:21:29;;;;;;;7.60;2.80;;;22.90;52.70;;;;;;215968;1294;22748;-42
2022/04/01 07:26:33;;;;;;;7.30;2.30;;;22.80;53.10;;;;;;216154;1294;25338;-38
2022/04/01 07:37:22;;;;;;;6.70;2.90;;;22.80;52.80;;;;;;216126;1294;22898;-40
2022/04/01 07:42:45;;;;;;;9.80;3.00;;;22.70;52.90;;;;;;215745;1294;22572;-40
2022/04/01 07:47:51;;;;;;;11.40;3.00;;;22.70;52.60;;;;;;215969;1293;22509;-40
2022/04/01 07:52:54;;;;;;;6.70;2.70;;;22.60;52.40;;;;;;215945;1294;23258;-40
2022/04/01 07:57:58;;;;;;;5.40;2.60;;;22.50;52.60;;;;;;216139;1294;22572;-45
2022/04/01 08:03:21;;;;;;;14.40;3.90;;;22.50;52.10;;;;;;216253;1294;25440;-43
2022/04/01 08:08:25;;;;;;;11.40;3.10;;;22.40;52.00;;;;;;216095;1296;22570;-38
2022/04/01 08:13:29;;;;;;;6.30;3.10;;;22.40;52.20;;;;;;216091;1293;23094;-43
2022/04/01 08:18:32;;;;;;;8.00;3.10;;;22.60;51.60;;;;;;215646;1294;24271;-41
2022/04/01 08:23:37;;;;;;;8.00;3.00;;;22.80;51.30;;;;;;216032;1294;24242;-38
2022/04/01 08:28:55;;;;;;;6.60;3.10;;;22.80;51.20;;;;;;215997;1294;22649;-39
2022/04/01 08:34:00;;;;;;;6.30;2.70;;;22.90;50.70;;;;;;215928;1294;24578;-39
2022/04/01 08:39:04;;;;;;;6.60;3.10;;;23.10;50.40;;;;;;216096;1294;22706;-38
2022/04/01 08:44:14;;;;;;;8.60;3.70;;;23.10;50.20;;;;;;216128;1296;22606;-41
2022/04/01 08:49:17;;;;;;;4.80;3.20;;;23.20;50.10;;;;;;216051;1293;24411;-43
2022/04/01 08:54:21;;;;;;;7.50;3.50;;;23.20;49.60;;;;;;216175;1294;24356;-40
2022/04/01 08:59:31;;;;;;;7.50;3.20;;;23.30;49.60;;;;;;216005;1294;22567;-42
2022/04/01 09:04:36;;;;;;;5.40;3.10;;;23.20;49.70;;;;;;216100;1296;24267;-38
2022/04/01 09:09:40;;;;;;;6.40;3.10;;;23.20;49.70;;;;;;215343;1296;24447;-38
2022/04/01 09:14:53;;;;;;;9.50;3.20;;;23.20;50.00;;;;;;215760;1296;22642;-39
2022/04/01 09:20:09;;;;;;;8.00;3.30;;;23.10;50.20;;;;;;216185;1296;24101;-39
2022/04/01 09:25:15;;;;;;;7.80;3.10;;;23.10;50.40;;;;;;216189;1294;22599;-39
2022/04/01 09:30:22;;;;;;;6.90;3.40;;;23.10;50.10;;;;;;215869;1294;22723;-43
2022/04/01 09:35:28;;;;;;;10.20;2.90;;;23.00;50.00;;;;;;216130;1294;25358;-39
2022/04/01 09:40:35;;;;;;;5.60;2.60;;;23.00;50.30;;;;;;215809;1293;22591;-38
2022/04/01 09:45:43;;;;;;;6.20;3.10;;;23.00;49.90;;;;;;216039;1293;25409;-38
2022/04/01 09:50:58;;;;;;;5.70;2.80;;;23.10;50.00;;;;;;215994;1294;22579;-39
2022/04/01 09:56:02;;;;;;;7.10;2.60;;;23.20;49.50;;;;;;215755;1293;26274;-37
2022/04/01 10:01:06;;;;;;;7.00;2.90;;;23.20;49.30;;;;;;215907;1294;24293;-38
2022/04/01 10:06:14;;;;;;;5.40;3.00;;;23.30;49.50;;;;;;216022;1293;22850;-39
2022/04/01 10:11:20;;;;;;;7.10;3.30;;;23.40;49.20;;;;;;216001;1294;22588;-39
2022/04/01 10:16:25;;;;;;;4.20;2.60;;;23.50;48.80;;;;;;215981;1293;22807;-38
2022/04/01 10:21:30;;;;;;;6.70;2.40;;;23.60;48.60;;;;;;215817;1293;22821;-39
2022/04/01 10:26:36;;;;;;;4.40;2.60;;;23.60;48.40;;;;;;215740;1294;25347;-38
2022/04/01 10:31:42;;;;;;;4.70;2.30;;;23.60;48.00;;;;;;215824;1294;26538;-38
2022/04/01 10:37:00;;;;;;;5.70;2.70;;;23.60;48.60;;;;;;215287;1297;24350;-39
2022/04/01 10:42:10;;;;;;;4.80;2.40;;;23.50;48.40;;;;;;215920;1294;22624;-39
2022/04/01 10:47:14;;;;;;;4.70;2.60;;;23.50;48.60;;;;;;215911;1294;22573;-38
2022/04/01 10:52:24;;;;;;;5.30;2.60;;;23.40;48.50;;;;;;215651;1294;25701;-40
2022/04/01 10:57:30;;;;;;;5.40;3.00;;;23.40;48.50;;;;;;215980;1293;22591;-38
2022/04/01 11:02:45;;;;;;;4.60;2.50;;;23.30;48.50;;;;;;216059;1294;22589;-38
2022/04/01 11:08:20;;;;;;;6.20;3.00;;;23.20;48.30;;;;;;215159;1293;22927;-38
2022/04/01 11:13:28;;;;;;;5.40;2.80;;;23.20;48.40;;;;;;215619;1293;22681;-38
2022/04/01 11:19:11;;;;;;;5.00;2.70;;;23.20;48.40;;;;;;216001;1294;22580;-38
2022/04/01 11:24:22;;;;;;;7.70;2.80;;;23.20;48.30;;;;;;215905;1294;22664;-39
2022/04/01 11:29:27;;;;;;;7.40;2.80;;;23.30;48.30;;;;;;215904;1293;25888;-39
2022/04/01 11:34:31;;;;;;;6.10;2.80;;;23.30;48.30;;;;;;215879;1296;22580;-40
2022/04/01 11:39:37;;;;;;;7.30;2.80;;;23.40;48.30;;;;;;215310;1296;23566;-41
2022/04/01 11:44:56;;;;;;;5.40;2.30;;;23.50;48.20;;;;;;215758;1293;22617;-39
2022/04/01 11:50:10;;;;;;;4.10;2.60;;;23.50;48.20;;;;;;215197;1293;22609;-38
2022/04/01 11:55:16;;;;;;;6.20;3.30;;;23.60;48.10;;;;;;215796;1293;22582;-39
2022/04/01 12:00:27;;;;;;;5.30;2.60;;;23.60;47.90;;;;;;215684;1294;22806;-38
2022/04/01 12:05:31;;;;;;;5.10;2.40;;;23.70;47.90;;;;;;215231;1293;22745;-39
2022/04/01 12:10:39;;;;;;;5.80;2.60;;;23.70;47.80;;;;;;215803;1294;25334;-38
2022/04/01 12:15:45;;;;;;;5.40;2.90;;;23.70;47.90;;;;;;215713;1293;26664;-47
2022/04/01 12:21:00;;;;;;;5.90;2.90;;;23.60;48.20;;;;;;215732;1294;22671;-46
2022/04/01 12:26:16;;;;;;;5.60;2.70;;;23.50;48.20;;;;;;215662;1293;22613;-43
2022/04/01 12:31:25;;;;;;;4.80;2.60;;;23.50;48.20;;;;;;215684;1294;24297;-46
2022/04/01 12:36:38;;;;;;;4.30;2.60;;;23.50;48.40;;;;;;215913;1294;25704;-46
2022/04/01 12:42:21;;;;;;;4.70;2.50;;;23.40;48.40;;;;;;215969;1294;23019;-45
2022/04/01 12:47:40;;;;;;;6.10;2.40;;;23.40;48.60;;;;;;215628;1293;22705;-45
2022/04/01 12:52:48;;;;;;;6.00;3.10;;;23.50;48.50;;;;;;215221;1293;22581;-47
2022/04/01 12:57:57;;;;;;;7.80;2.60;;;23.50;48.40;;;;;;215901;1293;24333;-44
2022/04/01 13:03:01;;;;;;;6.20;3.20;;;23.60;48.50;;;;;;215847;1293;22714;-45
2022/04/01 13:08:09;;;;;;;5.90;3.40;;;23.60;48.30;;;;;;215762;1293;22743;-44
2022/04/01 13:13:18;;;;;;;5.50;2.70;;;23.70;48.30;;;;;;215947;1293;22630;-44
2022/04/01 13:18:23;;;;;;;3.60;2.00;;;23.80;48.10;;;;;;215847;1294;22696;-43
2022/04/01 13:23:28;;;;;;;5.00;2.60;;;23.70;47.90;;;;;;216015;1293;22602;-50
2022/04/01 13:28:32;;;;;;;3.90;2.30;;;23.70;48.10;;;;;;216032;1294;23102;-47
2022/04/01 13:33:36;;;;;;;4.90;2.70;;;23.70;48.20;;;;;;215621;1293;25654;-46
2022/04/01 13:38:40;;;;;;;4.70;2.80;;;23.60;48.40;;;;;;215732;1293;22558;-48
2022/04/01 13:43:44;;;;;;;6.00;2.80;;;23.50;48.40;;;;;;215324;1296;22650;-50
2022/04/01 13:48:53;;;;;;;4.20;2.50;;;23.50;48.50;;;;;;215778;1293;22589;-46
2022/04/01 13:54:02;;;;;;;8.30;2.40;;;23.60;48.40;;;;;;215958;1293;22671;-43
2022/04/01 13:59:06;;;;;;;4.30;2.50;;;23.50;48.40;;;;;;215358;1296;26236;-43
2022/04/01 14:04:28;;;;;;;5.30;2.70;;;23.50;48.80;;;;;;215953;1293;24249;-44
2022/04/01 14:09:33;;;;;;;5.30;2.30;;;23.60;48.20;;;;;;215508;1293;25346;-44
2022/04/01 14:14:59;;;;;;;5.90;2.50;;;23.60;48.10;;;;;;216063;1293;22732;-46
2022/04/01 14:20:07;;;;;;;5.80;2.90;;;23.70;47.90;;;;;;215990;1294;25520;-45
2022/04/01 14:25:15;;;;;;;5.20;2.60;;;23.70;47.90;;;;;;215701;1293;22590;-44
2022/04/01 14:30:19;;;;;;;6.30;3.00;;;23.80;47.60;;;;;;215543;1293;24347;-49
2022/04/01 14:35:24;;;;;;;5.90;2.80;;;23.80;47.60;;;;;;215833;1293;24223;-47
2022/04/01 14:40:27;;;;;;;7.30;2.40;;;23.70;47.90;;;;;;216197;1293;24245;-49
2022/04/01 14:45:32;;;;;;;5.70;3.00;;;23.60;47.90;;;;;;215539;1293;22585;-47
2022/04/01 14:50:40;;;;;;;8.10;3.30;;;23.60;47.80;;;;;;215810;1293;25390;-47
2022/04/01 14:55:44;;;;;;;5.90;3.00;;;23.60;48.10;;;;;;216028;1293;22622;-45
2022/04/01 15:00:48;;;;;;;8.60;3.10;;;23.60;47.90;;;;;;215903;1293;23844;-44
2022/04/01 15:05:54;;;;;;;7.10;2.80;;;23.50;48.40;;;;;;215662;1296;25494;-42
2022/04/01 15:11:05;;;;;;;5.60;2.90;;;23.60;48.30;;;;;;215396;1293;24450;-43
2022/04/01 15:16:17;;;;;;;10.00;4.80;;;23.60;49.00;;;;;;215804;1293;24546;-45
2022/04/01 15:21:22;;;;;;;14.20;5.20;;;23.60;50.50;;;;;;215412;1293;24297;-46
2022/04/01 15:26:25;;;;;;;13.80;5.00;;;23.70;49.50;;;;;;216086;1293;22605;-52
2022/04/01 15:31:30;;;;;;;9.60;4.90;;;23.80;50.20;;;;;;215796;1293;24297;-54
2022/04/01 15:36:34;;;;;;;11.60;4.70;;;23.70;50.30;;;;;;215751;1293;22734;-51
2022/04/01 15:41:49;;;;;;;10.50;4.50;;;23.50;50.90;;;;;;215927;1293;22704;-47
2022/04/01 15:47:02;;;;;;;8.50;4.00;;;23.60;51.20;;;;;;216068;1293;23693;-48
2022/04/01 15:52:11;;;;;;;8.20;4.00;;;23.70;50.80;;;;;;215691;1293;25794;-48
2022/04/01 15:57:17;;;;;;;8.10;4.10;;;23.90;50.30;;;;;;215941;1293;22608;-48
2022/04/01 16:02:35;;;;;;;9.30;4.20;;;24.00;49.90;;;;;;215320;1293;23978;-50
2022/04/01 16:07:40;;;;;;;10.00;4.50;;;23.90;50.00;;;;;;215880;1293;25599;-48
2022/04/01 16:12:49;;;;;;;7.40;4.00;;;23.80;50.30;;;;;;215629;1293;22572;-48
2022/04/01 16:17:54;;;;;;;8.30;3.70;;;23.80;50.90;;;;;;215526;1293;24350;-47
2022/04/01 16:23:15;;;;;;;7.80;4.00;;;23.60;51.70;;;;;;215807;1293;25690;-50
2022/04/01 16:28:22;;;;;;;9.30;4.00;;;23.50;51.90;;;;;;215669;1293;22765;-46
2022/04/01 16:33:28;;;;;;;9.80;3.40;;;23.40;52.50;;;;;;216044;1293;23691;-43
2022/04/01 16:38:32;;;;;;;7.20;3.40;;;23.30;53.10;;;;;;215538;1293;25634;-43
2022/04/01 16:43:36;;;;;;;9.00;3.40;;;23.20;53.30;;;;;;215911;1293;23261;-45
2022/04/01 16:48:40;;;;;;;8.20;3.30;;;23.10;53.30;;;;;;215472;1293;249451;-45
2022/04/01 16:53:44;;;;;;;8.00;3.30;;;23.00;53.40;;;;;;215777;1293;24195;-46
2022/04/01 16:58:48;;;;;;;7.70;3.30;;;23.00;53.70;;;;;;216011;1293;22585;-53
2022/04/01 17:03:55;;;;;;;8.30;3.40;;;23.00;53.70;;;;;;215927;1293;22696;-50
2022/04/01 17:14:27;;;;;;;9.20;4.10;;;23.00;53.30;;;;;;215554;1293;24007;-47
2022/04/01 17:19:32;;;;;;;9.30;3.50;;;23.00;53.70;;;;;;215848;1293;22791;-44
2022/04/01 17:24:46;;;;;;;15.00;3.60;;;22.90;53.80;;;;;;216018;1293;25291;-45
2022/04/01 17:29:56;;;;;;;10.60;3.60;;;22.90;53.50;;;;;;216123;1293;22729;-45
2022/04/01 17:35:21;;;;;;;7.10;3.70;;;22.90;53.10;;;;;;216232;1293;22684;-45
2022/04/01 17:40:26;;;;;;;11.40;3.90;;;22.90;53.80;;;;;;215873;1293;22586;-52
2022/04/01 17:45:33;;;;;;;8.00;3.30;;;22.80;53.20;;;;;;215902;1293;24430;-45
2022/04/01 17:50:42;;;;;;;8.20;3.70;;;22.70;53.00;;;;;;215999;1293;24083;-47
2022/04/01 17:55:46;;;;;;;9.10;4.00;;;22.60;53.10;;;;;;216075;1293;24287;-46
2022/04/01 18:00:56;;;;;;;9.70;3.90;;;22.60;53.50;;;;;;215909;1293;22596;-51
2022/04/01 18:06:03;;;;;;;9.80;4.00;;;22.60;53.30;;;;;;216057;1293;22745;-49
2022/04/01 18:11:08;;;;;;;9.20;3.80;;;22.60;53.00;;;;;;215870;1293;22604;-44
2022/04/01 18:16:16;;;;;;;9.50;3.90;;;22.50;53.10;;;;;;216184;1293;22581;-49
2022/04/01 18:21:22;;;;;;;8.60;3.90;;;22.50;53.20;;;;;;216113;1293;22637;-45
2022/04/01 18:26:50;;;;;;;9.50;3.70;;;22.60;52.90;;;;;;216015;1293;22817;-46
2022/04/01 18:32:02;;;;;;;7.10;3.70;;;22.50;52.50;;;;;;216006;1293;25513;-46
2022/04/01 18:37:07;;;;;;;8.80;4.00;;;22.50;52.30;;;;;;215983;1293;25344;-45
2022/04/01 18:42:13;;;;;;;8.50;3.30;;;22.60;52.60;;;;;;216243;1293;22562;-43
2022/04/01 18:47:16;;;;;;;12.00;4.20;;;22.60;52.60;;;;;;216019;1294;24355;-43
2022/04/01 18:52:21;;;;;;;11.00;3.90;;;22.60;52.90;;;;;;215885;1293;22714;-47
2022/04/01 18:57:34;;;;;;;7.80;4.10;;;22.60;52.90;;;;;;216140;1293;22637;-47
2022/04/01 19:02:53;;;;;;;8.80;4.10;;;22.50;53.00;;;;;;215664;1293;25387;-44
2022/04/01 19:09:04;;;;;;;8.30;4.40;;;22.50;53.80;;;;;;216039;1293;22596;-43
2022/04/01 19:14:12;;;;;;;10.90;4.10;;;22.50;53.60;;;;;;214788;1299;22573;-43
2022/04/01 19:19:28;;;;;;;9.30;4.50;;;22.40;53.10;;;;;;215662;1293;24524;-45
2022/04/01 19:24:37;;;;;;;13.00;4.60;;;22.40;53.30;;;;;;216065;1293;22592;-48
2022/04/01 19:29:54;;;;;;;6.30;3.70;;;22.30;53.30;;;;;;215639;1293;24417;-44
2022/04/01 19:35:19;;;;;;;6.60;4.30;;;22.30;53.30;;;;;;215983;1293;25448;-41
2022/04/01 19:40:27;;;;;;;6.80;3.70;;;22.30;53.70;;;;;;215925;1293;22736;-43
2022/04/01 19:45:35;;;;;;;6.50;3.50;;;22.40;53.00;;;;;;215525;1296;22647;-43
2022/04/01 19:50:48;;;;;;;9.10;3.70;;;22.70;52.50;;;;;;216064;1293;25069;-44
2022/04/01 19:56:00;;;;;;;8.90;4.00;;;22.80;52.10;;;;;;215888;1293;25368;-45
2022/04/01 20:01:06;;;;;;;17.60;4.60;;;22.90;52.70;;;;;;215791;1293;25344;-45
2022/04/01 20:06:10;;;;;;;24.30;4.90;;;23.00;53.00;;;;;;215977;1293;22578;-44
2022/04/01 20:11:41;;;;;;;19.10;4.80;;;23.00;52.90;;;;;;215713;1296;26070;-50
2022/04/01 20:16:45;;;;;;;13.60;5.20;;;23.10;52.30;;;;;;216023;1294;22795;-55
2022/04/01 20:21:53;;;;;;;12.80;4.90;;;23.20;51.90;;;;;;215849;1294;24284;-54
2022/04/01 20:27:13;;;;;;;18.50;4.30;;;23.20;51.20;;;;;;216955;1293;22640;-54
2022/04/01 20:32:32;;;;;;;13.30;5.20;;;23.10;52.30;;;;;;215665;1293;22592;-50
2022/04/01 20:37:36;;;;;;;13.40;5.40;;;23.00;52.10;;;;;;215528;1293;22737;-51
2022/04/01 20:42:50;;;;;;;18.80;5.40;;;22.90;52.30;;;;;;215695;1293;22746;-53
2022/04/01 20:48:05;;;;;;;13.00;5.60;;;22.80;52.50;;;;;;215754;1293;22703;-52
2022/04/01 20:53:11;;;;;;;17.50;5.70;;;22.80;52.50;;;;;;215166;1293;25499;-54
2022/04/01 20:58:15;;;;;;;18.30;5.80;;;22.80;53.70;;;;;;216121;1293;22768;-58
2022/04/01 21:03:23;;;;;;;17.30;6.30;;;22.80;55.20;;;;;;216348;1294;23018;-56
2022/04/01 21:08:58;;;;;;;16.20;5.20;;;22.80;55.00;;;;;;216131;1293;24588;-49
2022/04/01 21:14:24;;;;;;;18.00;6.20;;;22.80;54.50;;;;;;215622;1293;24529;-48
2022/04/01 21:19:32;;;;;;;18.50;6.10;;;22.80;54.20;;;;;;216169;1293;24086;-46
2022/04/01 21:24:48;;;;;;;11.90;5.00;;;22.80;53.80;;;;;;215747;1293;22560;-43
2022/04/01 21:29:58;;;;;;;18.60;7.30;;;22.70;53.50;;;;;;215710;1293;22649;-47
2022/04/01 21:35:09;;;;;;;18.50;5.60;;;22.70;56.70;;;;;;215666;1293;22582;-44
2022/04/01 21:40:13;;;;;;;17.10;6.50;;;22.80;57.70;;;;;;215954;1293;23950;-44
2022/04/01 21:45:17;;;;;;;15.00;6.30;;;22.80;58.10;;;;;;215622;1293;24480;-43
2022/04/01 21:50:24;;;;;;;19.80;6.30;;;22.90;59.50;;;;;;215688;1294;24341;-44
2022/04/01 21:55:28;;;;;;;18.40;5.80;;;23.00;60.00;;;;;;215636;1293;22586;-44
2022/04/01 22:00:38;;;;;;;14.70;6.00;;;22.90;59.50;;;;;;216094;1293;24463;-48
2022/04/01 22:05:46;;;;;;;16.30;6.00;;;22.90;59.20;;;;;;216045;1294;26677;-44
2022/04/01 22:11:13;;;;;;;13.10;5.50;;;23.00;59.20;;;;;;215668;1293;23101;-45
2022/04/01 22:16:30;;;;;;;12.80;5.80;;;23.00;58.90;;;;;;215962;1293;22764;-47
2022/04/01 22:21:43;;;;;;;14.30;5.90;;;23.00;58.50;;;;;;216184;1294;22586;-45
2022/04/01 22:26:50;;;;;;;15.30;5.30;;;23.00;58.40;;;;;;215680;1293;22565;-45
2022/04/01 22:31:55;;;;;;;12.70;5.70;;;23.00;58.10;;;;;;215876;1293;22599;-44
2022/04/01 22:37:02;;;;;;;15.80;6.20;;;23.10;58.00;;;;;;215664;1293;22793;-49
2022/04/01 22:42:06;;;;;;;15.30;5.30;;;23.00;57.70;;;;;;215769;1293;22650;-44
2022/04/01 22:47:12;;;;;;;13.70;5.60;;;23.00;57.60;;;;;;215734;1292;23216;-44
2022/04/01 22:52:25;;;;;;;14.60;5.60;;;23.00;57.50;;;;;;215697;1293;22570;-46
2022/04/01 22:57:29;;;;;;;;;;;23.00;57.40;;;;;;215483;1296;24888;-45
2022/04/01 23:02:33;;;;;;;15.40;6.20;;;23.00;57.40;;;;;;215449;1293;22564;-46
2022/04/01 23:07:38;;;;;;;11.80;5.60;;;22.90;58.10;;;;;;215701;1293;23200;-44
2022/04/01 23:12:45;;;;;;;11.50;5.40;;;22.90;57.60;;;;;;215844;1293;22784;-44
2022/04/01 23:17:51;;;;;;;9.50;5.10;;;22.90;57.30;;;;;;215946;1293;23872;-44
2022/04/01 23:22:59;;;;;;;12.40;5.50;;;22.80;57.00;;;;;;215835;1293;22579;-45
2022/04/01 23:28:09;;;;;;;10.10;4.80;;;22.70;57.00;;;;;;216106;1294;22648;-44
2022/04/01 23:33:15;;;;;;;13.10;4.40;;;22.70;56.80;;;;;;215842;1294;22607;-45
2022/04/01 23:38:20;;;;;;;9.40;4.20;;;22.60;56.60;;;;;;215972;1293;22738;-44
2022/04/01 23:43:32;;;;;;;9.40;4.70;;;22.60;56.60;;;;;;215976;1293;24514;-42
2022/04/01 23:48:36;;;;;;;11.10;4.30;;;22.50;56.30;;;;;;215314;1293;24264;-44
2022/04/01 23:53:40;;;;;;;9.10;4.30;;;22.50;56.10;;;;;;215781;1293;22873;-43
2022/04/01 23:58:43;;;;;;;8.80;4.10;;;22.40;55.90;;;;;;215780;1293;22670;-44
